createdAt,value
2019-02-26T00:02:26.078Z,6.60
2019-02-26T00:04:58.610Z,6.60
2019-02-26T00:07:30.441Z,6.70
2019-02-26T00:10:04.027Z,6.80
2019-02-26T00:12:35.494Z,6.90
2019-02-26T00:15:09.392Z,6.90
2019-02-26T00:17:43.015Z,6.90
2019-02-26T00:20:13.298Z,7.00
2019-02-26T00:22:45.780Z,7.00
2019-02-26T00:25:29.551Z,7.00
2019-02-26T00:27:59.881Z,7.10
2019-02-26T00:30:31.216Z,7.10
2019-02-26T00:33:02.795Z,7.10
2019-02-26T00:35:41.715Z,7.10
2019-02-26T00:38:13.410Z,7.10
2019-02-26T00:40:44.329Z,7.10
2019-02-26T00:43:14.853Z,7.10
2019-02-26T00:45:45.211Z,7.10
2019-02-26T00:48:15.545Z,7.10
2019-02-26T00:50:46.423Z,7.10
2019-02-26T00:53:19.139Z,7.10
2019-02-26T00:55:48.803Z,7.10
2019-02-26T00:58:19.393Z,7.10
2019-02-26T01:00:59.091Z,7.10
2019-02-26T01:03:29.411Z,7.10
2019-02-26T01:06:01.439Z,7.10
2019-02-26T01:08:31.759Z,7.10
2019-02-26T01:11:03.785Z,7.10
2019-02-26T01:13:33.995Z,7.10
2019-02-26T01:16:04.427Z,7.10
2019-02-26T01:18:34.817Z,7.10
2019-02-26T01:21:05.096Z,7.10
2019-02-26T01:23:35.355Z,7.20
2019-02-26T01:26:12.098Z,7.10
2019-02-26T01:28:44.134Z,7.10
2019-02-26T01:31:13.981Z,7.10
2019-02-26T01:33:46.751Z,7.00
2019-02-26T01:36:19.149Z,7.00
2019-02-26T01:38:51.049Z,7.00
2019-02-26T01:41:23.278Z,7.00
2019-02-26T01:43:53.484Z,7.00
2019-02-26T01:46:24.018Z,6.90
2019-02-26T01:48:55.215Z,6.90
2019-02-26T01:51:28.467Z,6.90
2019-02-26T01:53:58.453Z,6.90
2019-02-26T01:56:28.714Z,6.90
2019-02-26T01:59:02.116Z,6.80
2019-02-26T02:01:31.133Z,6.80
2019-02-26T02:04:01.425Z,6.80
2019-02-26T02:06:33.122Z,6.80
2019-02-26T02:09:03.807Z,6.80
2019-02-26T02:11:37.609Z,6.80
2019-02-26T02:14:08.225Z,6.80
2019-02-26T02:16:40.416Z,6.80
2019-02-26T02:19:15.524Z,6.80
2019-02-26T02:21:42.615Z,6.80
2019-02-26T02:24:15.064Z,6.80
2019-02-26T02:26:47.460Z,6.80
2019-02-26T02:29:17.315Z,6.80
2019-02-26T02:31:48.559Z,6.80
2019-02-26T02:34:18.863Z,6.90
2019-02-26T02:36:49.061Z,7.00
2019-02-26T02:39:20.870Z,7.00
2019-02-26T02:41:54.728Z,7.00
2019-02-26T02:44:25.504Z,7.10
2019-02-26T02:46:55.609Z,7.10
2019-02-26T02:49:25.925Z,7.20
2019-02-26T02:51:56.264Z,7.20
2019-02-26T02:54:26.618Z,7.20
2019-02-26T02:56:59.808Z,7.30
2019-02-26T02:59:30.995Z,7.30
2019-02-26T03:02:00.670Z,7.30
2019-02-26T03:04:34.409Z,7.30
2019-02-26T03:07:04.433Z,7.30
2019-02-26T03:09:37.745Z,7.30
2019-02-26T03:12:19.236Z,7.30
2019-02-26T03:14:49.846Z,7.30
2019-02-26T03:17:20.243Z,7.30
2019-02-26T03:19:50.736Z,7.40
2019-02-26T03:22:21.713Z,7.40
2019-02-26T03:24:54.388Z,7.40
2019-02-26T03:27:27.806Z,7.40
2019-02-26T03:29:58.294Z,7.40
2019-02-26T03:32:28.086Z,7.30
2019-02-26T03:35:02.162Z,7.30
2019-02-26T03:37:31.409Z,7.30
2019-02-26T03:40:03.707Z,7.30
2019-02-26T03:42:36.472Z,7.40
2019-02-26T03:45:09.352Z,7.30
2019-02-26T03:47:40.601Z,7.40
2019-02-26T03:50:13.763Z,7.40
2019-02-26T03:52:45.082Z,7.40
2019-02-26T03:55:18.281Z,7.40
2019-02-26T03:57:50.389Z,7.40
2019-02-26T04:00:20.316Z,7.40
2019-02-26T04:02:51.968Z,7.40
2019-02-26T04:05:22.453Z,7.40
2019-02-26T04:07:58.909Z,7.40
2019-02-26T04:10:28.222Z,7.40
2019-02-26T04:12:59.529Z,7.40
2019-02-26T04:15:35.131Z,7.40
2019-02-26T04:18:03.662Z,7.40
2019-02-26T04:20:33.988Z,7.40
2019-02-26T04:23:04.565Z,7.40
2019-02-26T04:25:52.089Z,7.40
2019-02-26T04:28:27.228Z,7.40
2019-02-26T04:30:59.447Z,7.40
2019-02-26T04:34:06.191Z,7.40
2019-02-26T04:37:04.645Z,7.40
2019-02-26T04:39:47.689Z,7.40
2019-02-26T04:42:40.953Z,7.50
2019-02-26T04:45:32.942Z,7.40
2019-02-26T04:48:09.146Z,7.40
2019-02-26T04:50:41.379Z,7.40
2019-02-26T04:53:11.340Z,7.40
2019-02-26T04:55:44.712Z,7.30
2019-02-26T04:58:17.036Z,7.30
2019-02-26T05:00:46.144Z,7.30
2019-02-26T05:03:20.086Z,7.30
2019-02-26T05:05:53.765Z,7.30
2019-02-26T05:08:21.515Z,7.20
2019-02-26T05:10:52.535Z,7.20
2019-02-26T05:13:25.248Z,7.20
2019-02-26T05:15:55.625Z,7.10
2019-02-26T05:18:26.537Z,7.10
2019-02-26T05:20:59.380Z,7.20
2019-02-26T05:23:33.019Z,7.10
2019-02-26T05:26:11.003Z,7.10
2019-02-26T05:28:49.718Z,7.00
2019-02-26T05:31:21.401Z,7.00
2019-02-26T05:33:55.394Z,7.00
2019-02-26T05:36:28.230Z,7.00
2019-02-26T05:39:02.293Z,6.90
2019-02-26T05:41:34.111Z,6.90
2019-02-26T05:44:08.347Z,6.80
2019-02-26T05:46:37.339Z,6.80
2019-02-26T05:49:10.565Z,6.70
2019-02-26T05:51:39.501Z,6.70
2019-02-26T05:54:12.200Z,6.70
2019-02-26T05:56:43.587Z,6.60
2019-02-26T05:59:15.494Z,6.50
2019-02-26T06:01:46.530Z,6.50
2019-02-26T06:04:19.594Z,6.40
2019-02-26T06:06:51.069Z,6.40
2019-02-26T06:09:23.512Z,6.30
2019-02-26T06:11:53.104Z,6.30
2019-02-26T06:14:25.463Z,6.20
2019-02-26T06:16:55.911Z,6.20
2019-02-26T06:19:44.933Z,6.20
2019-02-26T06:22:20.186Z,6.20
2019-02-26T06:24:47.339Z,6.20
2019-02-26T06:27:19.570Z,6.10
2019-02-26T06:29:52.832Z,6.10
2019-02-26T06:32:21.379Z,6.10
2019-02-26T06:34:51.693Z,6.20
2019-02-26T06:37:23.734Z,6.20
2019-02-26T06:39:55.604Z,6.20
2019-02-26T06:42:26.118Z,6.30
2019-02-26T06:44:56.525Z,6.30
2019-02-26T06:47:29.276Z,6.30
2019-02-26T06:49:58.804Z,6.30
2019-02-26T06:52:29.959Z,6.40
2019-02-26T06:55:02.974Z,6.50
2019-02-26T06:57:32.852Z,6.50
2019-02-26T07:00:04.248Z,6.50
2019-02-26T07:02:35.359Z,6.60
2019-02-26T07:05:08.707Z,6.60
2019-02-26T07:07:38.980Z,6.60
2019-02-26T07:10:13.826Z,6.60
2019-02-26T07:12:45.524Z,6.60
2019-02-26T07:15:16.315Z,6.70
2019-02-26T07:17:46.731Z,6.70
2019-02-26T07:20:17.055Z,6.70
2019-02-26T07:22:49.754Z,6.80
2019-02-26T07:25:20.347Z,6.80
2019-02-26T07:27:51.394Z,6.90
2019-02-26T07:30:22.647Z,6.90
2019-02-26T07:32:52.965Z,6.90
2019-02-26T07:35:23.255Z,6.90
2019-02-26T07:37:54.617Z,7.00
2019-02-26T07:40:27.785Z,7.00
2019-02-26T07:42:57.425Z,7.00
2019-02-26T07:45:29.643Z,7.10
2019-02-26T07:48:01.020Z,7.10
2019-02-26T07:50:36.961Z,7.20
2019-02-26T07:53:03.372Z,7.20
2019-02-26T07:55:35.393Z,7.30
2019-02-26T07:58:06.208Z,7.30
2019-02-26T08:00:39.802Z,7.40
2019-02-26T08:03:10.571Z,7.40
2019-02-26T08:05:40.934Z,7.50
2019-02-26T08:08:12.070Z,7.50
2019-02-26T08:10:45.357Z,7.50
2019-02-26T08:13:15.041Z,7.60
2019-02-26T08:15:47.117Z,7.60
2019-02-26T08:18:17.436Z,7.70
2019-02-26T08:20:47.798Z,7.70
2019-02-26T08:23:19.870Z,7.70
2019-02-26T08:26:06.828Z,7.70
2019-02-26T08:28:38.870Z,7.70
2019-02-26T08:31:11.202Z,7.70
2019-02-26T08:33:40.884Z,7.70
2019-02-26T08:36:13.583Z,7.70
2019-02-26T08:38:43.116Z,7.70
2019-02-26T08:41:13.456Z,7.80
2019-02-26T08:43:46.345Z,7.80
2019-02-26T08:46:17.161Z,7.80
2019-02-26T08:48:48.371Z,7.90
2019-02-26T08:51:21.483Z,8.00
2019-02-26T08:53:51.996Z,8.00
2019-02-26T08:56:23.942Z,8.00
2019-02-26T08:58:55.278Z,8.00
2019-02-26T09:01:25.592Z,8.00
2019-02-26T09:03:56.639Z,7.90
2019-02-26T09:06:27.741Z,7.80
2019-02-26T09:08:59.653Z,7.80
2019-02-26T09:11:33.777Z,7.80
2019-02-26T09:14:04.749Z,7.80
2019-02-26T09:16:35.455Z,7.80
2019-02-26T09:19:05.761Z,7.80
2019-02-26T09:21:36.890Z,7.80
2019-02-26T09:24:07.995Z,7.90
2019-02-26T09:26:38.291Z,7.90
2019-02-26T09:29:10.322Z,7.90
2019-02-26T09:31:40.544Z,8.00
2019-02-26T09:34:10.852Z,8.00
2019-02-26T09:36:41.131Z,8.10
2019-02-26T09:39:13.109Z,8.10
2019-02-26T09:41:45.448Z,8.20
2019-02-26T09:44:15.322Z,8.30
2019-02-26T09:46:45.522Z,8.40
2019-02-26T09:49:15.872Z,8.50
2019-02-26T09:51:46.172Z,8.60
2019-02-26T09:54:17.772Z,8.50
2019-02-26T09:56:48.516Z,8.50
2019-02-26T09:59:18.790Z,8.50
2019-02-26T10:01:49.090Z,8.50
2019-02-26T10:04:20.140Z,8.50
2019-02-26T10:06:51.345Z,8.50
2019-02-26T10:09:21.932Z,8.60
2019-02-26T10:11:52.437Z,8.60
2019-02-26T10:14:22.735Z,8.70
2019-02-26T10:16:55.054Z,8.70
2019-02-26T10:19:25.906Z,8.80
2019-02-26T10:21:57.296Z,8.80
2019-02-26T10:24:30.183Z,8.80
2019-02-26T10:27:03.025Z,8.80
2019-02-26T10:29:32.453Z,8.90
2019-02-26T10:32:03.651Z,9.00
2019-02-26T10:34:33.940Z,9.00
2019-02-26T10:37:04.415Z,9.10
2019-02-26T10:39:34.673Z,9.20
2019-02-26T10:42:04.973Z,9.30
2019-02-26T10:44:35.399Z,9.40
2019-02-26T10:47:07.753Z,9.60
2019-02-26T10:49:38.390Z,9.60
2019-02-26T10:52:10.918Z,9.70
2019-02-26T10:54:43.446Z,9.70
2019-02-26T10:57:14.499Z,9.90
2019-02-26T10:59:45.119Z,9.90
2019-02-26T11:02:17.783Z,10.00
2019-02-26T11:04:50.422Z,10.00
2019-02-26T11:07:20.674Z,10.10
2019-02-26T11:09:53.042Z,10.10
2019-02-26T11:12:25.176Z,10.20
2019-02-26T11:15:01.584Z,10.20
2019-02-26T11:17:31.727Z,10.30
2019-02-26T11:20:04.485Z,10.40
2019-02-26T11:22:35.241Z,10.50
2019-02-26T11:25:08.731Z,10.40
2019-02-26T11:27:40.895Z,10.50
2019-02-26T11:30:23.838Z,10.50
2019-02-26T11:32:58.721Z,10.50
2019-02-26T11:35:27.406Z,10.60
2019-02-26T11:37:58.284Z,10.70
2019-02-26T11:40:30.687Z,10.70
2019-02-26T11:43:10.906Z,10.70
2019-02-26T11:45:35.158Z,10.80
2019-02-26T11:48:06.628Z,10.80
2019-02-26T11:50:38.968Z,10.90
2019-02-26T11:53:10.015Z,10.80
2019-02-26T11:55:40.403Z,10.90
2019-02-26T11:58:13.061Z,10.90
2019-02-26T12:00:50.787Z,11.00
2019-02-26T12:03:24.973Z,11.00
2019-02-26T12:05:55.889Z,11.00
2019-02-26T12:08:25.889Z,11.10
2019-02-26T12:11:01.177Z,11.10
2019-02-26T12:13:28.306Z,11.20
2019-02-26T12:15:59.163Z,11.30
2019-02-26T12:18:29.503Z,11.30
2019-02-26T12:21:00.222Z,11.40
2019-02-26T12:23:31.854Z,11.40
2019-02-26T12:26:03.789Z,11.40
2019-02-26T12:28:35.903Z,11.40
2019-02-26T12:31:08.086Z,11.50
2019-02-26T12:33:37.855Z,11.50
2019-02-26T12:36:09.802Z,11.60
2019-02-26T12:38:40.023Z,11.60
2019-02-26T12:41:12.209Z,11.60
2019-02-26T12:43:43.975Z,11.50
2019-02-26T12:46:14.125Z,11.60
2019-02-26T12:48:46.951Z,11.70
2019-02-26T12:51:16.380Z,11.70
2019-02-26T12:53:50.079Z,11.70
2019-02-26T12:56:20.833Z,11.80
2019-02-26T12:58:54.570Z,11.80
2019-02-26T13:01:23.986Z,11.80
2019-02-26T13:03:55.100Z,11.80
2019-02-26T13:06:25.803Z,11.80
2019-02-26T13:08:56.118Z,11.80
2019-02-26T13:11:26.389Z,11.80
2019-02-26T13:13:57.911Z,11.80
2019-02-26T13:16:28.223Z,11.90
2019-02-26T13:19:03.769Z,11.80
2019-02-26T13:21:30.451Z,11.80
2019-02-26T13:24:11.444Z,11.80
2019-02-26T13:26:36.204Z,11.80
2019-02-26T13:29:04.554Z,11.80
2019-02-26T13:31:41.705Z,11.90
2019-02-26T13:34:13.687Z,11.90
2019-02-26T13:36:39.706Z,12.00
2019-02-26T13:39:10.629Z,12.00
2019-02-26T13:41:41.244Z,12.00
2019-02-26T13:44:11.667Z,12.00
2019-02-26T13:46:42.077Z,12.00
2019-02-26T13:49:12.387Z,12.00
2019-02-26T13:51:42.689Z,12.00
2019-02-26T13:54:13.125Z,12.00
2019-02-26T13:56:43.380Z,12.00
2019-02-26T13:59:13.705Z,11.90
2019-02-26T14:01:44.101Z,12.00
2019-02-26T14:04:14.426Z,12.00
2019-02-26T14:06:44.903Z,12.00
2019-02-26T14:09:15.210Z,12.00
2019-02-26T14:11:45.569Z,11.90
2019-02-26T14:14:15.886Z,11.90
2019-02-26T14:16:46.334Z,11.90
2019-02-26T14:19:17.649Z,11.90
2019-02-26T14:21:47.927Z,11.90
2019-02-26T14:24:18.278Z,11.90
2019-02-26T14:26:48.604Z,12.00
2019-02-26T14:29:18.865Z,12.10
2019-02-26T14:31:50.882Z,12.20
2019-02-26T14:34:21.142Z,12.20
2019-02-26T14:36:53.633Z,12.20
2019-02-26T14:39:26.146Z,12.20
2019-02-26T14:41:56.440Z,12.10
2019-02-26T14:44:26.755Z,12.10
2019-02-26T14:46:57.008Z,12.20
2019-02-26T14:49:27.331Z,12.10
2019-02-26T14:51:57.608Z,12.10
2019-02-26T14:54:27.833Z,12.10
2019-02-26T14:56:58.106Z,12.10
2019-02-26T14:59:28.953Z,12.10
2019-02-26T15:02:00.905Z,12.10
2019-02-26T15:04:32.278Z,12.20
2019-02-26T15:07:02.533Z,12.10
2019-02-26T15:09:33.146Z,12.10
2019-02-26T15:12:06.871Z,12.10
2019-02-26T15:14:42.969Z,12.00
2019-02-26T15:17:14.888Z,11.90
2019-02-26T15:19:49.583Z,11.90
2019-02-26T15:22:17.067Z,11.80
2019-02-26T15:24:47.473Z,11.80
2019-02-26T15:27:17.773Z,11.70
2019-02-26T15:29:50.792Z,11.60
2019-02-26T15:32:21.094Z,11.60
2019-02-26T15:34:51.498Z,11.60
2019-02-26T15:37:21.848Z,11.40
2019-02-26T15:39:52.221Z,11.30
2019-02-26T15:42:22.527Z,11.30
2019-02-26T15:44:52.720Z,11.20
2019-02-26T15:47:24.465Z,11.20
2019-02-26T15:49:54.753Z,11.10
2019-02-26T15:52:25.060Z,11.00
2019-02-26T15:54:57.658Z,11.00
2019-02-26T15:57:28.636Z,10.90
2019-02-26T16:00:00.431Z,10.80
2019-02-26T16:02:30.990Z,10.70
2019-02-26T16:05:01.270Z,10.70
2019-02-26T16:07:32.829Z,10.60
2019-02-26T16:10:03.180Z,10.50
2019-02-26T16:12:33.682Z,10.50
2019-02-26T16:15:08.178Z,10.40
2019-02-26T16:17:38.924Z,10.30
2019-02-26T16:20:14.839Z,10.20
2019-02-26T16:22:45.997Z,10.10
2019-02-26T16:25:16.615Z,10.00
2019-02-26T16:27:46.959Z,10.00
2019-02-26T16:30:19.902Z,9.90
2019-02-26T16:32:50.232Z,9.90
2019-02-26T16:35:24.712Z,9.80
2019-02-26T16:37:52.464Z,9.80
2019-02-26T16:40:22.764Z,9.70
2019-02-26T16:42:53.103Z,9.70
2019-02-26T16:45:27.348Z,9.60
2019-02-26T16:47:57.705Z,9.60
2019-02-26T16:50:32.405Z,9.50
2019-02-26T16:53:02.728Z,9.50
2019-02-26T16:55:33.317Z,9.40
2019-02-26T16:58:03.717Z,9.30
2019-02-26T17:00:34.020Z,9.20
2019-02-26T17:03:04.921Z,9.20
2019-02-26T17:05:35.198Z,9.10
2019-02-26T17:08:05.759Z,9.10
2019-02-26T17:10:35.959Z,9.00
2019-02-26T17:13:35.668Z,8.90
2019-02-26T17:16:07.036Z,8.80
2019-02-26T17:18:37.346Z,8.80
2019-02-26T17:21:07.625Z,8.70
2019-02-26T17:23:37.929Z,8.60
2019-02-26T17:26:08.231Z,8.60
2019-02-26T17:28:38.531Z,8.50
2019-02-26T17:31:08.930Z,8.50
2019-02-26T17:33:39.220Z,8.50
2019-02-26T17:36:09.509Z,8.40
2019-02-26T17:38:39.811Z,8.40
2019-02-26T17:41:12.247Z,8.30
2019-02-26T17:43:42.051Z,8.20
2019-02-26T17:46:12.321Z,8.20
2019-02-26T17:48:43.713Z,8.20
2019-02-26T17:51:14.251Z,8.10
2019-02-26T17:53:44.577Z,8.10
2019-02-26T17:56:14.764Z,8.00
2019-02-26T17:58:45.104Z,8.10
2019-02-26T18:01:15.398Z,8.00
2019-02-26T18:03:45.705Z,7.90
2019-02-26T18:06:15.969Z,7.90
2019-02-26T18:08:46.288Z,7.90
2019-02-26T18:11:16.553Z,7.80
2019-02-26T18:13:46.857Z,7.80
2019-02-26T18:16:17.134Z,7.70
2019-02-26T18:18:47.911Z,7.70
2019-02-26T18:21:18.167Z,7.70
2019-02-26T18:23:48.517Z,7.60
2019-02-26T18:26:18.812Z,7.60
2019-02-26T18:28:49.263Z,7.50
2019-02-26T18:31:26.290Z,7.40
2019-02-26T18:33:51.628Z,7.40
2019-02-26T18:36:21.967Z,7.30
2019-02-26T18:38:52.429Z,7.20
2019-02-26T18:41:22.672Z,7.20
2019-02-26T18:43:53.025Z,7.10
2019-02-26T18:46:23.516Z,7.10
2019-02-26T18:48:53.857Z,7.10
2019-02-26T18:51:24.131Z,7.10
2019-02-26T18:53:54.482Z,7.00
2019-02-26T18:56:24.770Z,7.00
2019-02-26T18:58:55.121Z,7.00
2019-02-26T19:01:25.444Z,6.90
2019-02-26T19:03:55.888Z,6.90
2019-02-26T19:06:27.005Z,6.90
2019-02-26T19:08:57.952Z,6.90
2019-02-26T19:11:28.274Z,6.80
2019-02-26T19:13:58.711Z,6.80
2019-02-26T19:16:29.040Z,6.80
2019-02-26T19:18:59.360Z,6.80
2019-02-26T19:21:29.679Z,6.80
2019-02-26T19:24:00.094Z,6.80
2019-02-26T19:26:48.451Z,6.70
2019-02-26T19:29:18.773Z,6.70
2019-02-26T19:31:50.135Z,6.70
2019-02-26T19:34:20.437Z,6.70
2019-02-26T19:36:50.787Z,6.70
2019-02-26T19:39:21.083Z,6.60
2019-02-26T19:41:51.362Z,6.60
2019-02-26T19:44:21.678Z,6.60
2019-02-26T19:46:51.907Z,6.60
2019-02-26T19:49:22.212Z,6.60
2019-02-26T19:51:52.572Z,6.50
2019-02-26T19:54:22.891Z,6.50
2019-02-26T19:56:54.698Z,6.50
2019-02-26T19:59:26.919Z,6.40
2019-02-26T20:01:59.046Z,6.40
2019-02-26T20:04:28.984Z,6.40
2019-02-26T20:07:00.418Z,6.40
2019-02-26T20:09:30.654Z,6.30
2019-02-26T20:12:01.034Z,6.30
2019-02-26T20:14:32.479Z,6.20
2019-02-26T20:17:11.603Z,6.20
2019-02-26T20:19:35.892Z,6.20
2019-02-26T20:22:06.239Z,6.20
2019-02-26T20:24:36.540Z,6.10
2019-02-26T20:27:06.865Z,6.10
2019-02-26T20:29:37.179Z,6.10
2019-02-26T20:32:07.444Z,6.00
2019-02-26T20:34:37.775Z,6.00
2019-02-26T20:37:09.590Z,5.90
2019-02-26T20:39:40.905Z,5.90
2019-02-26T20:42:11.811Z,5.90
2019-02-26T20:44:45.252Z,5.80
2019-02-26T20:47:14.049Z,5.80
2019-02-26T20:49:46.286Z,5.70
2019-02-26T20:52:16.272Z,5.70
2019-02-26T20:54:46.599Z,5.60
2019-02-26T20:57:17.856Z,5.60
2019-02-26T20:59:51.708Z,5.60
2019-02-26T21:02:20.060Z,5.60
2019-02-26T21:04:50.383Z,5.60
2019-02-26T21:07:21.789Z,5.60
2019-02-26T21:09:52.602Z,5.50
2019-02-26T21:12:23.918Z,5.50
2019-02-26T21:14:54.220Z,5.50
2019-02-26T21:17:26.552Z,5.40
2019-02-26T21:19:56.907Z,5.40
2019-02-26T21:22:27.147Z,5.40
2019-02-26T21:24:58.155Z,5.30
2019-02-26T21:27:28.756Z,5.30
2019-02-26T21:29:59.105Z,5.30
2019-02-26T21:32:29.377Z,5.30
2019-02-26T21:34:59.746Z,5.30
2019-02-26T21:37:32.674Z,5.30
2019-02-26T21:40:15.871Z,5.30
2019-02-26T21:42:46.570Z,5.30
2019-02-26T21:45:18.712Z,5.20
2019-02-26T21:47:49.426Z,5.20
2019-02-26T21:50:22.847Z,5.20
2019-02-26T21:52:59.762Z,5.20
2019-02-26T21:55:24.045Z,5.20
2019-02-26T21:58:04.620Z,5.20
2019-02-26T22:00:38.709Z,5.10
2019-02-26T22:03:06.755Z,5.10
2019-02-26T22:05:37.926Z,5.10
2019-02-26T22:08:08.753Z,5.00
2019-02-26T22:10:42.511Z,5.00
2019-02-26T22:13:11.601Z,5.00
2019-02-26T22:15:44.580Z,5.00
2019-02-26T22:18:14.920Z,4.90
2019-02-26T22:20:45.264Z,4.90
2019-02-26T22:23:15.848Z,4.90
2019-02-26T22:25:49.740Z,4.80
2019-02-26T22:28:23.103Z,4.80
2019-02-26T22:30:55.908Z,4.90
2019-02-26T22:33:25.771Z,4.80
2019-02-26T22:35:56.975Z,4.80
2019-02-26T22:38:28.779Z,4.70
2019-02-26T22:40:59.975Z,4.70
2019-02-26T22:43:31.393Z,4.70
2019-02-26T22:46:01.809Z,4.70
2019-02-26T22:48:32.104Z,4.70
2019-02-26T22:51:02.304Z,4.60
2019-02-26T22:53:36.372Z,4.60
2019-02-26T22:56:04.588Z,4.60
2019-02-26T22:58:35.843Z,4.60
2019-02-26T23:01:13.330Z,4.50
2019-02-26T23:03:45.918Z,4.50
2019-02-26T23:06:16.850Z,4.50
2019-02-26T23:08:47.597Z,4.50
2019-02-26T23:11:17.870Z,4.40
2019-02-26T23:13:49.020Z,4.40
2019-02-26T23:16:19.752Z,4.30
2019-02-26T23:18:50.454Z,4.30
2019-02-26T23:21:21.686Z,4.20
2019-02-26T23:23:54.716Z,4.20
2019-02-26T23:26:25.021Z,4.20
2019-02-26T23:28:55.518Z,4.20
2019-02-26T23:31:27.011Z,4.10
2019-02-26T23:33:58.959Z,4.10
2019-02-26T23:36:29.321Z,4.10
2019-02-26T23:38:59.629Z,4.10
2019-02-26T23:41:30.792Z,4.00
2019-02-26T23:44:02.901Z,4.00
2019-02-26T23:46:33.189Z,4.00
2019-02-26T23:49:03.525Z,4.00
2019-02-26T23:51:33.730Z,4.00
2019-02-26T23:54:04.740Z,3.90
2019-02-26T23:56:35.980Z,3.90
2019-02-26T23:59:06.328Z,3.80
